Latest Weather Observations for Montague Island

IDN60801

Issued at 4:53 pm EDT Saturday 24 February 2024 (issued every 10 minutes, with the page automatically refreshed every 10 minutes)

About weather observations | Map of weather stations | Latest weather observations for NSW | Other Formats
Station Details ID: 069017 Name: MONTAGUE ISLAND LIGHTHOUSE Lat: -36.25 Lon: 150.23 Height: 52.0 m
Data from the previous 72 hours. | See also: Recent months at Montague Island
Date/Time
EDT
Temp
°C
App
Temp
°C
Dew
Point
°C
Rel
Hum
%
Delta-T
°C
Wind Press
QNH
hPa
Press
MSL
hPa
Rain since
9am
mm
Dir  Spd
km/h
Gust
km/h
Spd
kts
Gust
kts
24/04:30pm 20.5 16.9 13.0 62 4.3 SSE 24 32 13 17 1018.4 1018.2 0.0
24/04:00pm 20.6 16.4 13.6 64 4.0 SSE 28 33 15 18 1018.3 1018.1 0.0
24/03:30pm 20.6 16.7 13.3 63 4.2 SSE 26 33 14 18 1018.5 1018.3 0.0
24/03:00pm 20.8 17.0 13.5 63 4.2 SSE 26 35 14 19 1018.3 1018.1 0.0
24/02:30pm 20.5 15.6 12.7 61 4.4 SSE 30 37 16 20 1018.3 1018.1 0.0
24/02:00pm 20.5 16.4 12.7 61 4.4 SSE 26 35 14 19 1018.3 1018.1 0.0
24/01:30pm 20.7 17.0 12.7 60 4.5 SSE 24 33 13 18 1018.3 1018.1 0.0
24/01:00pm 20.6 17.1 12.1 58 4.8 SSE 22 33 12 18 1018.4 1018.2 0.0
24/12:30pm 21.7 18.7 12.0 54 5.5 S 19 33 10 18 1018.5 1018.3 0.0
24/12:00pm 21.4 18.5 10.9 51 5.8 S 17 30 9 16 1018.5 1018.3 0.0
24/11:30am 21.1 17.9 11.2 53 5.5 SSW 19 30 10 16 1018.6 1018.4 0.0
24/11:00am 20.4 16.8 10.5 53 5.4 SSW 20 33 11 18 1018.5 1018.3 0.0
24/10:30am 19.3 14.7 9.5 53 5.2 SSW 24 37 13 20 1018.2 1018.0 0.0
24/10:00am 18.7 14.5 9.8 56 4.7 SW 22 37 12 20 1018.2 1018.0 0.0
24/09:30am 18.1 14.6 10.2 60 4.2 SW 19 30 10 16 1018.1 1017.9 0.0
24/09:00am 17.5 13.4 10.1 62 3.9 SW 22 32 12 17 1017.8 1017.6 7.0
24/08:30am 17.0 13.2 9.9 63 3.7 SW 20 26 11 14 1017.5 1017.3 7.0
24/08:00am 16.8 12.1 9.2 61 3.9 SW 24 32 13 17 1017.0 1016.8 7.0
24/07:30am 17.4 12.1 9.8 61 4.0 SW 28 41 15 22 1016.6 1016.4 7.0
24/07:00am 17.2 11.4 9.4 60 4.1 SW 30 48 16 26 1016.2 1016.0 7.0
24/06:41am 17.2 11.7 9.1 59 4.2 SW 28 46 15 25 1016.0 1015.8 7.0
24/06:30am 17.3 12.6 9.2 59 4.2 SW 24 43 13 23 1015.9 1015.7 7.0
24/06:00am 17.6 13.5 10.2 62 3.9 SSW 22 43 12 23 1015.5 1015.3 7.0
24/05:30am 17.7 13.4 10.8 64 3.7 SSW 24 46 13 25 1015.0 1014.8 7.0
24/05:24am 17.8 12.4 10.9 64 3.7 SSW 30 50 16 27 1014.8 1014.6 7.0
24/05:14am 17.7 16.8 10.6 63 3.8 SSW 6 46 3 25 1014.6 1014.4 7.0
24/05:00am 17.8 18.1 10.9 64 3.7 CALM 0 0 0 0 1014.6 1014.4 7.0
24/04:30am 18.2 18.7 11.5 65 3.7 CALM 0 0 0 0 1014.4 1014.2 7.0
24/04:00am 18.3 19.6 14.2 77 2.4 CALM 0 0 0 0 1014.3 1014.1 7.0
24/03:30am 18.5 19.8 14.0 75 2.6 CALM 0 0 0 0 1014.5 1014.3 7.0
24/03:00am 18.8 20.1 14.1 74 2.7 CALM 0 0 0 0 1014.4 1014.2 7.0
24/02:30am 18.8 20.1 14.1 74 2.7 CALM 0 0 0 0 1014.3 1014.1 7.0
24/02:00am 18.9 20.2 14.2 74 2.7 CALM 0 0 0 0 1014.2 1014.0 7.0
24/01:30am 19.1 20.4 14.1 73 2.9 CALM 0 0 0 0 1014.2 1014.0 7.0
24/01:00am 19.2 17.5 13.6 70 3.2 S 15 22 8 12 1014.3 1014.1 7.0
24/12:30am 18.9 17.3 14.0 73 2.8 S 15 24 8 13 1014.2 1014.0 7.0
24/12:00am 19.2 16.9 14.2 73 2.9 S 19 28 10 15 1014.1 1013.9 7.0
 
Date/Time
EDT
Temp
°C
App
Temp
°C
Dew
Point
°C
Rel
Hum
%
Delta-T
°C
Wind Press
QNH
hPa
Press
MSL
hPa
Rain since
9am
mm
Dir  Spd
km/h
Gust
km/h
Spd
kts
Gust
kts
23/11:30pm 19.2 16.7 14.2 73 2.9 S 20 33 11 18 1013.6 1013.4 7.0
23/11:00pm 19.2 16.9 14.2 73 2.9 S 19 32 10 17 1013.3 1013.1 7.0
23/10:30pm 19.1 16.8 14.6 75 2.6 S 20 24 11 13 1012.9 1012.8 7.0
23/10:00pm 19.3 17.2 14.8 75 2.6 S 19 30 10 16 1012.6 1012.5 7.0
23/09:30pm 19.0 17.1 15.1 78 2.3 S 19 30 10 16 1012.2 1012.1 7.0
23/09:00pm 18.6 16.6 15.5 82 1.8 SSW 20 30 11 16 1011.9 1011.8 7.0
23/08:30pm 18.4 16.4 15.5 83 1.7 SSW 20 39 11 21 1011.0 1010.9 6.8
23/08:00pm 19.5 16.6 15.0 75 2.6 S 24 41 13 22 1010.5 1010.3 6.8
23/07:30pm 19.5 16.9 15.0 75 2.6 S 22 39 12 21 1009.6 1009.4 6.8
23/07:00pm 19.5 16.3 15.4 77 2.4 S 26 41 14 22 1009.0 1008.8 6.8
23/06:30pm 19.3 15.3 15.2 77 2.4 S 30 43 16 23 1008.1 1007.9 6.8
23/06:28pm 19.4 15.6 15.7 79 2.2 S 30 48 16 26 1008.3 1008.1 6.8
23/06:00pm 18.8 15.4 15.7 82 1.8 S 28 43 15 23 1008.3 1008.1 6.8
23/05:30pm 18.4 14.8 17.1 92 0.8 SSE 32 57 17 31 1008.0 1007.8 2.8
23/05:25pm 19.0 15.6 17.8 93 0.7 SSE 32 57 17 31 1006.4 1006.2 1.6
23/05:00pm 19.4 15.8 17.7 90 1.0 S 33 46 18 25 1007.3 1007.1 0.8
23/04:30pm 20.5 16.8 16.9 80 2.2 S 32 44 17 24 1006.8 1006.6 0.4
23/04:00pm 20.1 16.8 17.9 87 1.4 SSE 32 50 17 27 1006.9 1006.7 0.4
23/03:30pm 20.6 16.5 17.4 82 2.0 SSE 35 48 19 26 1006.3 1006.1 0.2
23/03:00pm 20.7 17.8 17.9 84 1.7 SSE 30 43 16 23 1006.4 1006.2 0.2
23/02:30pm 20.8 17.0 18.0 84 1.7 SSE 35 43 19 23 1006.7 1006.5 0.2
23/02:00pm 21.0 19.4 18.4 85 1.6 S 24 39 13 21 1006.5 1006.3 0.2
23/01:30pm 21.2 19.2 19.1 88 1.3 S 28 43 15 23 1006.0 1005.8 0.2
23/01:00pm 21.3 18.7 19.6 90 1.1 SSE 32 44 17 24 1005.0 1004.8 0.2
23/12:56pm 21.5 20.2 19.8 90 1.1 SSE 26 43 14 23 1005.4 1005.2 0.2
23/12:30pm 23.2 25.1 20.5 85 1.8 SSW 11 19 6 10 1005.4 1005.2 0.2
23/12:00pm 23.1 25.5 20.8 87 1.5 E 9 20 5 11 1005.2 1005.0 0.2
23/11:30am 23.0 24.0 21.1 89 1.2 E 17 28 9 15 1005.1 1004.9 0.2
23/11:00am 23.8 27.0 19.7 78 2.6 SE 2 17 1 9 1005.9 1005.7 0.0
23/10:30am 24.4 28.5 20.7 80 2.4 CALM 0 0 0 0 1006.4 1006.2 0.0
23/10:00am 23.4 25.9 19.8 80 2.3 SE 6 17 3 9 1005.6 1005.4 0.0
23/09:30am 23.6 27.6 20.5 83 2.0 CALM 0 0 0 0 1005.4 1005.2 0.0
23/09:00am 23.7 26.5 17.9 70 3.6 CALM 0 0 0 0 1005.9 1005.7 0.0
23/08:30am 22.7 26.3 19.7 83 1.9 CALM 0 0 0 0 1005.7 1005.5 0.0
23/08:00am 21.9 25.8 20.4 91 1.0 CALM 0 0 0 0 1005.2 1005.0 0.0
23/07:30am 23.1 26.9 20.1 83 1.9 CALM 0 0 0 0 1005.0 1004.8 0.0
23/07:00am 23.7 27.0 19.0 75 3.0 CALM 0 0 0 0 1004.8 1004.6 0.0
23/06:30am 24.6 27.5 18.3 68 4.0 CALM 0 0 0 0 1004.4 1004.2 0.0
23/06:00am 22.7 25.9 18.9 79 2.4 CALM 0 0 0 0 1004.5 1004.3 0.0
23/05:30am 22.1 26.0 20.4 90 1.1 CALM 0 0 0 0 1004.3 1004.1 0.0
23/05:00am 21.9 26.0 20.7 93 0.8 CALM 0 0 0 0 1004.3 1004.1 0.0
23/04:30am 21.7 25.8 20.7 94 0.6 CALM 0 0 0 0 1004.1 1003.9 0.0
23/04:00am 21.6 25.8 20.9 96 0.5 CALM 0 0 0 0 1004.1 1003.9 0.0
23/03:30am 21.7 25.9 21.0 96 0.5 CALM 0 0 0 0 1004.1 1003.9 0.0
23/03:00am 21.7 25.9 21.0 96 0.5 CALM 0 0 0 0 1004.5 1004.3 0.0
23/02:30am 21.6 25.8 20.9 96 0.5 CALM 0 0 0 0 1004.8 1004.6 0.0
23/02:00am 21.8 26.1 21.1 96 0.5 CALM 0 0 0 0 1005.1 1004.9 0.0
23/01:30am 22.1 25.8 21.4 96 0.5 N 4 7 2 4 1005.5 1005.3 0.0
23/01:00am 22.3 24.3 21.5 95 0.5 N 13 15 7 8 1006.0 1005.8 0.0
23/12:30am 22.4 24.3 21.4 94 0.7 N 13 17 7 9 1006.3 1006.1 0.0
23/12:00am 22.6 24.3 21.6 94 0.7 N 15 22 8 12 1006.6 1006.4 0.0
 
Date/Time
EDT
Temp
°C
App
Temp
°C
Dew
Point
°C
Rel
Hum
%
Delta-T
°C
Wind Press
QNH
hPa
Press
MSL
hPa
Rain since
9am
mm
Dir  Spd
km/h
Gust
km/h
Spd
kts
Gust
kts
22/11:30pm 22.7 23.9 21.5 93 0.8 N 17 22 9 12 1006.9 1006.7 0.0
22/11:00pm 22.8 24.0 21.4 92 0.9 NNE 17 24 9 13 1007.3 1007.1 0.0
22/10:30pm 22.9 23.1 21.4 91 1.0 NNE 22 28 12 15 1007.7 1007.5 0.0
22/10:00pm 23.0 23.2 21.3 90 1.1 NNE 22 28 12 15 1007.8 1007.6 0.0
22/09:30pm 23.0 23.5 21.1 89 1.2 NNE 20 28 11 15 1008.0 1007.8 0.0
22/09:00pm 23.0 24.5 21.3 90 1.1 NNE 15 24 8 13 1008.0 1007.8 0.0
22/08:30pm 23.1 24.9 21.2 89 1.2 NNE 13 17 7 9 1008.1 1007.9 0.0
22/08:00pm 23.1 27.5 21.4 90 1.1 CALM 0 2 0 1 1008.2 1008.0 0.0
22/07:30pm 23.2 27.6 21.3 89 1.3 CALM 0 4 0 2 1008.2 1008.0 0.0
22/07:00pm 23.3 25.6 21.4 89 1.3 N 11 17 6 9 1007.8 1007.6 0.0
22/06:30pm 23.5 24.2 21.6 89 1.3 NNE 20 24 11 13 1007.5 1007.3 0.0
22/06:00pm 23.8 24.7 21.5 87 1.5 NNE 19 22 10 12 1007.5 1007.3 0.0
22/05:30pm 23.9 24.4 21.2 85 1.8 NNE 20 24 11 13 1008.0 1007.8 0.0
22/05:00pm 24.1 24.5 21.0 83 2.0 NNE 20 26 11 14 1008.1 1007.9 0.0
22/04:30pm 24.3 25.1 21.4 84 1.9 NNE 19 22 10 12 1008.1 1007.9 0.0
22/04:00pm 24.3 24.7 21.0 82 2.2 NNE 20 24 11 13 1008.5 1008.3 0.0
22/03:30pm 24.1 24.3 20.6 81 2.3 NNE 20 24 11 13 1008.9 1008.7 0.0
22/03:00pm 24.4 25.2 20.7 80 2.4 NNE 17 22 9 12 1009.5 1009.3 0.0
22/02:30pm 24.4 24.7 20.7 80 2.4 NNE 20 24 11 13 1009.9 1009.7 0.0
22/02:00pm 24.1 24.5 20.6 81 2.3 NNE 19 24 10 13 1010.4 1010.2 0.0
22/01:30pm 24.0 24.4 20.7 82 2.2 NNE 19 24 10 13 1010.6 1010.5 0.0
22/01:00pm 23.5 23.1 20.2 82 2.1 NNE 22 26 12 14 1011.0 1010.9 0.0
22/12:30pm 23.9 24.1 20.6 82 2.2 NNE 20 26 11 14 1011.6 1011.5 0.0
22/12:00pm 24.1 24.8 20.4 80 2.4 NNE 17 22 9 12 1012.3 1012.2 0.0
22/11:30am 23.8 23.8 19.7 78 2.6 NNE 19 24 10 13 1012.7 1012.6 0.0
22/11:00am 23.3 23.5 20.2 83 2.0 NNE 19 20 10 11 1013.2 1013.0 0.0
22/10:30am 23.2 25.0 19.6 80 2.3 N 9 17 5 9 1013.7 1013.5 0.0
22/10:00am 22.3 25.4 19.5 84 1.8 N 2 15 1 8 1013.9 1013.7 0.0
22/09:30am 21.8 24.9 18.6 82 2.0 CALM 0 0 0 0 1014.2 1014.0 0.0
22/09:00am 21.4 24.4 18.4 83 1.9 CALM 0 0 0 0 1014.0 1013.8 0.8
22/08:30am 20.8 21.4 17.8 83 1.9 NNW 11 15 6 8 1013.8 1013.6 0.8
22/08:00am 20.7 21.1 18.1 85 1.6 NNW 13 17 7 9 1013.9 1013.7 0.8
22/07:30am 20.2 20.9 18.0 87 1.4 N 11 17 6 9 1013.9 1013.7 0.8
22/07:00am 20.1 21.0 18.4 90 1.1 N 11 13 6 7 1013.7 1013.5 0.8
22/06:30am 20.1 22.7 18.4 90 1.1 N 2 6 1 3 1013.4 1013.2 0.8
22/06:00am 20.1 23.2 18.6 91 0.9 CALM 0 0 0 0 1013.1 1012.9 0.8
22/05:30am 20.3 23.6 19.0 92 0.8 CALM 0 0 0 0 1012.9 1012.8 0.8
22/05:00am 20.6 24.0 19.3 92 0.8 CALM 0 0 0 0 1013.2 1013.0 0.8
22/04:30am 20.7 23.8 19.4 92 0.8 N 2 6 1 3 1013.2 1013.0 0.8
22/04:00am 20.9 24.0 19.6 92 0.8 NNE 2 6 1 3 1013.3 1013.1 0.8
22/03:30am 20.8 24.3 19.6 93 0.8 CALM 0 0 0 0 1013.7 1013.5 0.8
22/03:00am 20.7 24.2 19.5 93 0.8 CALM 0 0 0 0 1014.2 1014.0 0.8
22/02:30am 20.9 23.8 19.9 94 0.6 NNW 4 6 2 3 1014.4 1014.2 0.8
22/02:00am 21.1 24.9 20.1 94 0.6 CALM 0 4 0 2 1014.9 1014.7 0.8
22/01:30am 21.1 24.9 20.1 94 0.6 CALM 0 2 0 1 1015.2 1015.0 0.8
22/01:00am 21.1 24.9 20.1 94 0.6 CALM 0 0 0 0 1015.7 1015.5 0.8
22/12:30am 21.5 25.4 20.3 93 0.8 CALM 0 0 0 0 1016.0 1015.8 0.8
22/12:00am 21.6 25.5 20.4 93 0.8 CALM 0 0 0 0 1016.4 1016.2 0.8
 
Date/Time
EDT
Temp
°C
App
Temp
°C
Dew
Point
°C
Rel
Hum
%
Delta-T
°C
Wind Press
QNH
hPa
Press
MSL
hPa
Rain since
9am
mm
Dir  Spd
km/h
Gust
km/h
Spd
kts
Gust
kts
21/11:30pm 21.7 25.6 20.3 92 0.9 CALM 0 0 0 0 1016.4 1016.2 0.8
21/11:00pm 21.8 25.7 20.3 91 1.0 CALM 0 0 0 0 1016.5 1016.3 0.8
21/10:30pm 21.6 25.3 19.9 90 1.1 CALM 0 0 0 0 1016.7 1016.5 0.8
21/10:00pm 21.7 25.4 20.0 90 1.1 CALM 0 0 0 0 1016.7 1016.5 0.8
21/09:30pm 21.8 25.5 19.9 89 1.2 CALM 0 0 0 0 1016.6 1016.4 0.8
21/09:00pm 21.8 25.5 19.9 89 1.2 CALM 0 2 0 1 1016.5 1016.3 0.8
21/08:30pm 22.0 25.8 20.1 89 1.2 CALM 0 2 0 1 1016.3 1016.1 0.8
21/08:00pm 22.0 25.7 19.9 88 1.3 CALM 0 2 0 1 1016.1 1015.9 0.8
21/07:30pm 22.2 26.0 20.1 88 1.4 CALM 0 4 0 2 1015.7 1015.5 0.8
21/07:00pm 22.3 25.5 19.7 85 1.7 NE 2 9 1 5 1015.7 1015.5 0.8
21/06:30pm 22.6 26.2 19.8 84 1.8 CALM 0 2 0 1 1015.7 1015.5 0.8
21/06:00pm 22.8 26.4 19.8 83 1.9 CALM 0 0 0 0 1015.8 1015.6 0.8
21/05:30pm 23.4 27.5 20.7 85 1.8 CALM 0 4 0 2 1015.8 1015.6 0.8
21/05:00pm 23.3 27.1 20.1 82 2.1 CALM 0 4 0 2 1016.0 1015.8 0.8

Other formats

Comma delimited format used in spreadsheet applications
http://www.bom.gov.au/fwo/IDN60801/IDN60801.94939.axf

JavaScript Object Notation format (JSON) in row-major order
http://www.bom.gov.au/fwo/IDN60801/IDN60801.94939.json

Data quality

Most of these data are generated automatically and are frequently updated. Quality checks on data are not normally performed. It is possible for incorrect values to appear. Refer to information at About Latest Weather Observations and please check the disclaimer before using these data.